Flinter Rose — PBUB — position and weather

sailwx.info

Track history (hours):
 
Tides and Currents Weather Stations Pressure Air Temp Water Temp Dewpoint Dewpoint Depression Visibility Wind Speed Wind Dir Waves Ship Positions

Flinter Rose

Last reported at 2016-Jun-26 04:29 UTC. Time now 2016-Jun-27 02:25 UTC.
Position N 37°39' E 010°10'.

Length 101 m; draft 6.2 m.

Type: Cargo ship. MMSI: 246227000.

Date/timePositionNaut miles runAvg speedWind from/ knotsBaromVisibWave heightAir tempDewpointWater temp
2016-Jun-26 04:29N 37°39' E 010°10'64 9.1
2016-Jun-25 21:31N 37°23' E 011°28'4110.2
2016-Jun-25 17:29N 37°12' E 012°17'9 9.8
2016-Jun-25 16:33N 37°09' E 012°28'10 9.8
2016-Jun-25 15:33N 37°06' E 012°40'10 9.5
2016-Jun-25 14:33N 37°04' E 012°52'9 9.1
2016-Jun-25 13:33N 37°01' E 013°03'10 9.6
2016-Jun-25 12:33N 36°59' E 013°14'10 9.5
2016-Jun-25 11:33N 36°56' E 013°26'10 9.9
2016-Jun-25 10:33N 36°54' E 013°38'11 9.9
2016-Jun-25 09:25N 36°50' E 013°51'8 9.9
2016-Jun-25 08:34N 36°48' E 014°01'9 9.2
2016-Jun-25 07:34N 36°46' E 014°12'9 9.0
2016-Jun-25 06:34N 36°43' E 014°23'10 9.9
2016-Jun-25 05:33N 36°41' E 014°35'3310.3
2016-Jun-25 02:20N 36°35' E 015°16'440 9.2
2016-Jun-23 02:33N 37°45' E 024°21'1111.3
2016-Jun-23 01:33N 37°52' E 024°32'265 9.4
2016-Jun-21 21:28N 40°42' E 028°54'1010.6
2016-Jun-21 20:32N 40°43' E 029°07'1010.5
2016-Jun-21 19:33N 40°45' E 029°20'  
2016-Jun-18 05:31N 40°44' E 029°45'1110.5
2016-Jun-18 04:29N 40°45' E 029°31'9 9.3
2016-Jun-18 03:33N 40°44' E 029°20'1010.4
2016-Jun-18 02:33N 40°48' E 029°07'1010.0
2016-Jun-18 01:33N 40°54' E 028°56'4 1.7
2016-Jun-17 23:13N 40°58' E 028°55'  
Track history (hours):
 
Tides and Currents Weather Stations Pressure Air Temp Water Temp Dewpoint Dewpoint Depression Visibility Wind Speed Wind Dir Waves Ship Positions

Flinter Rose

Last reported at 2016-Jun-26 04:29 UTC. Time now 2016-Jun-27 02:25 UTC.
Position N 37°39' E 010°10'.

Length 101 m; draft 6.2 m.

Type: Cargo ship. MMSI: 246227000.

Date/timePositionNaut miles runAvg speedWind from/ knotsBaromVisibWave heightAir tempDewpointWater temp
2016-Jun-26 04:29N 37°39' E 010°10'64 9.1
2016-Jun-25 21:31N 37°23' E 011°28'4110.2
2016-Jun-25 17:29N 37°12' E 012°17'9 9.8
2016-Jun-25 16:33N 37°09' E 012°28'10 9.8
2016-Jun-25 15:33N 37°06' E 012°40'10 9.5
2016-Jun-25 14:33N 37°04' E 012°52'9 9.1
2016-Jun-25 13:33N 37°01' E 013°03'10 9.6
2016-Jun-25 12:33N 36°59' E 013°14'10 9.5
2016-Jun-25 11:33N 36°56' E 013°26'10 9.9
2016-Jun-25 10:33N 36°54' E 013°38'11 9.9
2016-Jun-25 09:25N 36°50' E 013°51'8 9.9
2016-Jun-25 08:34N 36°48' E 014°01'9 9.2
2016-Jun-25 07:34N 36°46' E 014°12'9 9.0
2016-Jun-25 06:34N 36°43' E 014°23'10 9.9
2016-Jun-25 05:33N 36°41' E 014°35'3310.3
2016-Jun-25 02:20N 36°35' E 015°16'440 9.2
2016-Jun-23 02:33N 37°45' E 024°21'1111.3
2016-Jun-23 01:33N 37°52' E 024°32'265 9.4
2016-Jun-21 21:28N 40°42' E 028°54'1010.6
2016-Jun-21 20:32N 40°43' E 029°07'1010.5
2016-Jun-21 19:33N 40°45' E 029°20'  
2016-Jun-18 05:31N 40°44' E 029°45'1110.5
2016-Jun-18 04:29N 40°45' E 029°31'9 9.3
2016-Jun-18 03:33N 40°44' E 029°20'1010.4
2016-Jun-18 02:33N 40°48' E 029°07'1010.0
2016-Jun-18 01:33N 40°54' E 028°56'4 1.7
2016-Jun-17 23:13N 40°58' E 028°55'  

Dump ship's entire track history